Flight Track Log - Related Links

Times and Time Zones

All times are in EDT time to prevent confusion due to time zone crossing. See the N983CA flight status page for this flight to view local times or setup timezone preferences in your user account.

Time Position Orientation Groundspeed Altitude Reporting Facility
EDT Latitude Longitude Course Direction KTS MPH feet Rate Location/Type
Fri 09:46:24 PM 33.9333 -118.4833 338° Northwest 208 239 2,400  Level Southern California TRACON
Fri 09:46:49 PM 33.9283 -118.5089 257° West 227 261 3,100 2,233 Climbing Los Angeles Center
Fri 09:47:50 PM 33.9214 -118.6028 265° West 259 298 5,600 2,439 Climbing Los Angeles Center
Fri 09:48:00 PM 34.1232 -118.6384 22° Northeast  Level FlightAware Approximate
Fri 09:48:52 PM 33.9658 -118.6703 308° West 274 315 8,100  Level Los Angeles Center
Fri 09:49:00 PM 34.2283 -118.6000 North  Level FlightAware Approximate
Fri 09:49:54 PM 34.0411 -118.6700 360° North 270 311 9,000  Level Los Angeles Center
Fri 09:50:00 PM 34.3349 -118.6233 331° Northwest  Level FlightAware Approximate
Fri 09:50:56 PM 34.1183 -118.6561 North 267 307 9,100  Level Los Angeles Center
Fri 09:51:00 PM 34.4371 -118.6769 338° Northwest  Level FlightAware Approximate
Fri 09:51:57 PM 34.1917 -118.6683 352° North 265 305 10,900  Level Los Angeles Center
Fri 09:52:59 PM 34.2694 -118.6817 352° North 278 320 12,900 1,645 Climbing Los Angeles Center
Fri 09:54:01 PM 34.3500 -118.6953 352° North 290 334 14,300 1,306 Climbing Los Angeles Center
Fri 09:55:03 PM 34.4419 -118.7094 353° North 331 381 15,600 1,403 Climbing Los Angeles Center
Fri 09:56:05 PM 34.5325 -118.7267 351° North 331 381 17,200 1,317 Climbing Los Angeles Center
Fri 09:57:06 PM 34.6189 -118.7692 338° Northwest 337 388 18,300 1,171 Climbing Los Angeles Center
Fri 09:58:08 PM 34.7258 -118.8222 338° Northwest 342 394 19,600 1,113 Climbing Los Angeles Center
Fri 09:59:10 PM 34.8167 -118.8669 338° Northwest 350 403 20,600 1,016 Climbing Los Angeles Center
Fri 10:00:12 PM 34.9197 -118.9011 345° North 361 415 21,700 1,065 Climbing Los Angeles Center
Fri 10:01:14 PM 35.0189 -118.9342 345° North 367 422 22,800 1,024 Climbing Los Angeles Center
Fri 10:02:15 PM 35.1172 -118.9692 344° North 370 426 23,800 878 Climbing Los Angeles Center
Fri 10:03:17 PM 35.2167 -119.0114 341° North 379 436 24,600 629 Climbing Los Angeles Center
Fri 10:04:19 PM 35.3150 -119.0564 340° North 379 436 25,100 484 Climbing Los Angeles Center
Fri 10:05:21 PM 35.4156 -119.1031 339° North 383 441 25,600 439 Climbing Los Angeles Center
Fri 10:06:22 PM 35.5361 -119.1614 339° North 389 448 26,000 390 Climbing Los Angeles Center
Fri 10:07:24 PM 35.6386 -119.2103 339° North 393 452 26,400 584 Climbing Los Angeles Center
Fri 10:08:15 PM 35.7150 -119.2461 339° North 390 449 27,100 804 Climbing Oakland Center
Fri 10:09:16 PM 35.8172 -119.2947 339° North 393 452 27,900 787 Climbing Oakland Center
Fri 10:10:17 PM 35.9156 -119.3422 339° North 388 447 28,700 787 Climbing Oakland Center
Fri 10:11:18 PM 36.0122 -119.3892 339° North 379 436 29,500 639 Climbing Oakland Center
Fri 10:12:19 PM 36.1064 -119.4325 340° North 366 421 30,000 246 Climbing Oakland Center
Fri 10:13:20 PM 36.2256 -119.4897 339° North 383 441 30,000  Level Oakland Center
Fri 10:14:21 PM 36.3264 -119.5392 338° Northwest 390 449 30,000  Level Oakland Center
Fri 10:15:22 PM 36.4283 -119.5883 339° North 393 452 30,000  Level Oakland Center
Fri 10:16:23 PM 36.5256 -119.6425 336° Northwest 384 442 30,000  Level Oakland Center
Fri 10:17:24 PM 36.6153 -119.7114 328° Northwest 379 436 30,000  Level Oakland Center
Fri 10:18:25 PM 36.7044 -119.7822 328° Northwest 381 438 30,000  Level Oakland Center
Fri 10:19:26 PM 36.7947 -119.8528 328° Northwest 382 440 30,000  Level Oakland Center
Fri 10:20:27 PM 36.8822 -119.9211 328° Northwest 374 430 30,000  Level Oakland Center
Fri 10:21:28 PM 36.9700 -119.9908 328° Northwest 374 430 30,000  Level Oakland Center
Fri 10:22:29 PM 37.0578 -120.0606 328° Northwest 373 429 30,000 -590 Level Oakland Center
Fri 10:23:30 PM 37.1472 -120.1319 328° Northwest 372 428 28,800 -1,475 Descending Oakland Center
Fri 10:24:31 PM 37.2389 -120.2064 327° Northwest 388 447 27,000 -1,770 Descending Oakland Center
Fri 10:25:32 PM 37.3292 -120.2786 328° Northwest 386 444 25,200 -1,475 Descending Oakland Center
Fri 10:26:33 PM 37.4375 -120.3578 330° Northwest 375 432 24,000 -931 Descending Oakland Center
Fri 10:27:28 PM 37.5167 -120.4333 323° Northwest 356 410 23,400 -730 Descending Northern Cal TRACON
Fri 10:28:28 PM 37.5833 -120.5000 322° Northwest 352 405 22,600 -800 Descending Northern Cal TRACON
Fri 10:29:28 PM 37.6667 -120.5833 322° Northwest 347 399 21,800 -800 Descending Northern Cal TRACON
Fri 10:30:28 PM 37.7333 -120.6500 322° Northwest 345 397 21,000 -800 Descending Northern Cal TRACON
Fri 10:31:28 PM 37.8167 -120.7333 322° Northwest 346 398 20,200 -800 Descending Northern Cal TRACON
Fri 10:32:28 PM 37.8833 -120.8167 315° West 346 398 19,400 -900 Descending Northern Cal TRACON
Fri 10:33:28 PM 37.9667 -120.8833 328° Northwest 350 403 18,400 -950 Descending Northern Cal TRACON
Fri 10:34:28 PM 38.0333 -120.9667 315° West 355 409 17,500 -1,100 Descending Northern Cal TRACON
Fri 10:35:28 PM 38.1000 -121.0500 315° West 357 411 16,200 -1,250 Descending Northern Cal TRACON
Fri 10:36:28 PM 38.1667 -121.1500 310° West 347 399 15,000 -1,200 Descending Northern Cal TRACON
Fri 10:37:28 PM 38.2333 -121.2333 316° Northwest 341 392 13,800 -1,200 Descending Northern Cal TRACON
Fri 10:38:28 PM 38.3000 -121.3333 310° West 340 391 12,600 -1,200 Descending Northern Cal TRACON
Fri 10:39:28 PM 38.3500 -121.4167 307° West 323 372 11,400 -1,200 Descending Northern Cal TRACON
Fri 10:40:28 PM 38.4000 -121.4833 314° West 271 312 10,200 -1,300 Descending Northern Cal TRACON
Fri 10:41:28 PM 38.4500 -121.5500 314° West 256 295 8,800 -1,450 Descending Northern Cal TRACON
Fri 10:42:28 PM 38.5167 -121.6000 330° Northwest 259 298 7,300 -1,600 Descending Northern Cal TRACON
Fri 10:43:28 PM 38.5667 -121.6500 322° Northwest 254 292 5,600 -1,735 Descending Northern Cal TRACON
Fri 10:43:51 PM 38.5950 -121.6672 335° Northwest 254 292 4,900 -1,694 Descending Oakland Center
Fri 10:44:53 PM 38.6619 -121.6964 341° North 257 296 3,200 -927 Descending Oakland Center
Fri 10:45:54 PM 38.7333 -121.7056 354° North 256 295 3,000 -246 Descending Oakland Center
Fri 10:46:55 PM 38.7942 -121.7011 North 245 282 2,700 -443 Descending Oakland Center
Fri 10:47:56 PM 38.7961 -121.6275 88° East 223 257 2,100 -621 Descending Oakland Center
Fri 10:48:22 PM 38.7833 -121.6000 121° Southeast 189 217 1,800 -692 Descending Northern Cal TRACON

Login

Don't have an account? Register now (free) for customized features, flight alerts, and more!